sensor_id;sensor_type;location;lat;lon;timestamp;P1;P2;P0
55304;PMS7003;65692;51.378;19.824;2024-01-16T00:01:12;8.50;3.00;1.00
55304;PMS7003;65692;51.378;19.824;2024-01-16T00:03:40;12.50;7.75;5.00
55304;PMS7003;65692;51.378;19.824;2024-01-16T00:06:07;11.00;9.00;7.00
55304;PMS7003;65692;51.378;19.824;2024-01-16T00:08:34;10.50;6.50;6.25
55304;PMS7003;65692;51.378;19.824;2024-01-16T00:11:03;6.25;6.25;6.00
55304;PMS7003;65692;51.378;19.824;2024-01-16T00:13:31;9.00;6.75;6.00
55304;PMS7003;65692;51.378;19.824;2024-01-16T00:15:58;6.50;5.00;3.75
55304;PMS7003;65692;51.378;19.824;2024-01-16T00:18:25;3.25;3.25;3.00
55304;PMS7003;65692;51.378;19.824;2024-01-16T00:20:52;11.00;7.50;5.00
55304;PMS7003;65692;51.378;19.824;2024-01-16T00:23:18;7.00;6.00;5.50
55304;PMS7003;65692;51.378;19.824;2024-01-16T00:25:45;9.00;9.00;6.75
55304;PMS7003;65692;51.378;19.824;2024-01-16T00:28:12;6.00;6.00;6.00
55304;PMS7003;65692;51.378;19.824;2024-01-16T00:30:39;10.00;8.00;6.25
55304;PMS7003;65692;51.378;19.824;2024-01-16T00:33:06;18.50;8.00;7.00
55304;PMS7003;65692;51.378;19.824;2024-01-16T00:35:32;13.50;9.50;8.00
55304;PMS7003;65692;51.378;19.824;2024-01-16T00:38:00;13.50;10.50;7.25
55304;PMS7003;65692;51.378;19.824;2024-01-16T00:40:27;13.00;7.50;6.00
55304;PMS7003;65692;51.378;19.824;2024-01-16T00:42:53;9.25;7.50;6.00
55304;PMS7003;65692;51.378;19.824;2024-01-16T00:45:20;8.25;4.00;3.00
55304;PMS7003;65692;51.378;19.824;2024-01-16T00:47:47;14.50;9.25;7.00
55304;PMS7003;65692;51.378;19.824;2024-01-16T00:50:14;6.25;4.00;4.00
55304;PMS7003;65692;51.378;19.824;2024-01-16T00:52:41;4.00;3.00;1.00
55304;PMS7003;65692;51.378;19.824;2024-01-16T00:55:08;9.75;6.00;3.00
55304;PMS7003;65692;51.378;19.824;2024-01-16T00:57:35;8.75;6.00;4.00
55304;PMS7003;65692;51.378;19.824;2024-01-16T01:00:01;8.00;8.00;6.50
55304;PMS7003;65692;51.378;19.824;2024-01-16T01:02:30;8.25;4.00;4.00
55304;PMS7003;65692;51.378;19.824;2024-01-16T01:04:57;7.00;6.50;6.00
55304;PMS7003;65692;51.378;19.824;2024-01-16T01:07:24;7.00;6.00;4.00
55304;PMS7003;65692;51.378;19.824;2024-01-16T01:09:52;7.50;6.00;6.00
55304;PMS7003;65692;51.378;19.824;2024-01-16T01:12:19;9.50;9.50;7.00
55304;PMS7003;65692;51.378;19.824;2024-01-16T01:14:45;10.75;6.25;5.00
55304;PMS7003;65692;51.378;19.824;2024-01-16T01:17:12;14.50;10.50;8.50
55304;PMS7003;65692;51.378;19.824;2024-01-16T01:19:38;19.25;13.75;11.50
55304;PMS7003;65692;51.378;19.824;2024-01-16T01:22:05;15.00;9.00;6.75
55304;PMS7003;65692;51.378;19.824;2024-01-16T01:24:32;9.25;6.00;4.50
55304;PMS7003;65692;51.378;19.824;2024-01-16T01:26:58;9.50;7.00;6.00
55304;PMS7003;65692;51.378;19.824;2024-01-16T01:29:25;5.00;5.00;4.00
55304;PMS7003;65692;51.378;19.824;2024-01-16T01:31:52;7.00;5.00;4.00
55304;PMS7003;65692;51.378;19.824;2024-01-16T01:34:18;7.00;7.00;6.00
55304;PMS7003;65692;51.378;19.824;2024-01-16T01:36:45;1.50;1.50;1.50
55304;PMS7003;65692;51.378;19.824;2024-01-16T01:39:12;6.50;6.00;3.00
55304;PMS7003;65692;51.378;19.824;2024-01-16T01:41:38;6.50;4.00;3.50
55304;PMS7003;65692;51.378;19.824;2024-01-16T01:44:06;6.00;3.75;3.50
55304;PMS7003;65692;51.378;19.824;2024-01-16T01:46:33;3.75;3.75;3.75
55304;PMS7003;65692;51.378;19.824;2024-01-16T01:49:01;5.00;3.75;3.50
55304;PMS7003;65692;51.378;19.824;2024-01-16T01:51:29;6.00;3.00;3.00
55304;PMS7003;65692;51.378;19.824;2024-01-16T01:53:56;5.50;4.00;3.50
55304;PMS7003;65692;51.378;19.824;2024-01-16T01:56:25;8.25;6.25;5.00
55304;PMS7003;65692;51.378;19.824;2024-01-16T01:58:53;10.00;6.00;4.00
55304;PMS7003;65692;51.378;19.824;2024-01-16T02:01:20;8.00;6.50;3.00
55304;PMS7003;65692;51.378;19.824;2024-01-16T02:03:49;7.00;6.75;4.00
55304;PMS7003;65692;51.378;19.824;2024-01-16T02:06:16;7.00;7.00;6.00
55304;PMS7003;65692;51.378;19.824;2024-01-16T02:08:44;11.75;8.25;5.75
55304;PMS7003;65692;51.378;19.824;2024-01-16T02:11:11;12.75;8.00;5.50
55304;PMS7003;65692;51.378;19.824;2024-01-16T02:13:38;7.00;7.00;6.00
55304;PMS7003;65692;51.378;19.824;2024-01-16T02:16:05;9.25;6.75;6.00
55304;PMS7003;65692;51.378;19.824;2024-01-16T02:18:32;12.50;9.75;7.50
55304;PMS7003;65692;51.378;19.824;2024-01-16T02:21:02;10.50;10.50;8.00
55304;PMS7003;65692;51.378;19.824;2024-01-16T02:23:32;9.50;1.00;1.00
55304;PMS7003;65692;51.378;19.824;2024-01-16T02:25:59;5.50;5.50;4.00
55304;PMS7003;65692;51.378;19.824;2024-01-16T02:28:26;6.00;6.00;4.00
55304;PMS7003;65692;51.378;19.824;2024-01-16T02:30:53;9.00;6.50;5.00
55304;PMS7003;65692;51.378;19.824;2024-01-16T02:33:20;5.00;5.00;3.00
55304;PMS7003;65692;51.378;19.824;2024-01-16T02:35:47;6.75;5.00;3.50
55304;PMS7003;65692;51.378;19.824;2024-01-16T02:38:13;4.75;3.75;3.00
55304;PMS7003;65692;51.378;19.824;2024-01-16T02:40:41;6.00;3.75;3.50
55304;PMS7003;65692;51.378;19.824;2024-01-16T02:43:07;6.50;5.00;4.00
55304;PMS7003;65692;51.378;19.824;2024-01-16T02:45:34;6.75;6.00;4.00
55304;PMS7003;65692;51.378;19.824;2024-01-16T02:48:01;9.75;5.75;4.50
55304;PMS7003;65692;51.378;19.824;2024-01-16T02:50:30;6.75;6.25;5.00
55304;PMS7003;65692;51.378;19.824;2024-01-16T02:52:56;7.00;6.00;5.00
55304;PMS7003;65692;51.378;19.824;2024-01-16T02:55:23;5.00;3.75;3.25
55304;PMS7003;65692;51.378;19.824;2024-01-16T02:57:51;6.50;5.00;3.50
55304;PMS7003;65692;51.378;19.824;2024-01-16T03:00:17;5.25;1.50;1.00
55304;PMS7003;65692;51.378;19.824;2024-01-16T03:02:44;4.00;3.00;3.00
55304;PMS7003;65692;51.378;19.824;2024-01-16T03:05:11;3.75;0.75;0.00
55304;PMS7003;65692;51.378;19.824;2024-01-16T03:07:37;7.00;3.50;2.00
55304;PMS7003;65692;51.378;19.824;2024-01-16T03:10:04;5.50;5.00;3.50
55304;PMS7003;65692;51.378;19.824;2024-01-16T03:12:31;4.50;3.00;3.00
55304;PMS7003;65692;51.378;19.824;2024-01-16T03:14:57;5.25;3.75;3.00
55304;PMS7003;65692;51.378;19.824;2024-01-16T03:17:24;4.00;4.00;3.50
55304;PMS7003;65692;51.378;19.824;2024-01-16T03:19:51;6.25;4.00;3.00
55304;PMS7003;65692;51.378;19.824;2024-01-16T03:22:17;1.50;1.00;0.75
55304;PMS7003;65692;51.378;19.824;2024-01-16T03:24:44;5.25;4.00;4.00
55304;PMS7003;65692;51.378;19.824;2024-01-16T03:27:12;7.75;3.75;2.00
55304;PMS7003;65692;51.378;19.824;2024-01-16T03:29:39;5.00;5.00;4.00
55304;PMS7003;65692;51.378;19.824;2024-01-16T03:32:06;6.00;4.00;3.00
55304;PMS7003;65692;51.378;19.824;2024-01-16T03:34:33;6.00;1.00;1.00
55304;PMS7003;65692;51.378;19.824;2024-01-16T03:36:59;7.00;3.00;3.00
55304;PMS7003;65692;51.378;19.824;2024-01-16T03:39:26;0.00;0.00;0.00
55304;PMS7003;65692;51.378;19.824;2024-01-16T03:41:53;0.75;0.75;0.00
55304;PMS7003;65692;51.378;19.824;2024-01-16T03:44:19;3.75;3.00;1.50
55304;PMS7003;65692;51.378;19.824;2024-01-16T03:46:46;1.00;1.00;1.00
55304;PMS7003;65692;51.378;19.824;2024-01-16T03:49:12;6.25;4.00;4.00
55304;PMS7003;65692;51.378;19.824;2024-01-16T03:51:39;6.00;3.00;3.00
55304;PMS7003;65692;51.378;19.824;2024-01-16T03:54:09;4.00;3.00;3.00
55304;PMS7003;65692;51.378;19.824;2024-01-16T03:56:35;6.25;3.75;3.00
55304;PMS7003;65692;51.378;19.824;2024-01-16T03:59:02;4.00;4.00;3.75
55304;PMS7003;65692;51.378;19.824;2024-01-16T04:01:30;3.00;3.00;3.00
55304;PMS7003;65692;51.378;19.824;2024-01-16T04:03:58;3.00;3.00;3.00
55304;PMS7003;65692;51.378;19.824;2024-01-16T04:06:25;4.00;4.00;3.50
55304;PMS7003;65692;51.378;19.824;2024-01-16T04:08:52;3.25;3.00;2.00
55304;PMS7003;65692;51.378;19.824;2024-01-16T04:11:19;8.25;4.00;3.50
55304;PMS7003;65692;51.378;19.824;2024-01-16T04:13:46;4.00;4.00;3.00
55304;PMS7003;65692;51.378;19.824;2024-01-16T04:16:13;3.75;3.75;3.75
55304;PMS7003;65692;51.378;19.824;2024-01-16T04:18:40;6.00;3.75;3.75
55304;PMS7003;65692;51.378;19.824;2024-01-16T04:21:09;8.00;5.50;5.50
55304;PMS7003;65692;51.378;19.824;2024-01-16T04:23:36;6.00;3.75;3.00
55304;PMS7003;65692;51.378;19.824;2024-01-16T04:26:03;9.50;6.00;5.00
55304;PMS7003;65692;51.378;19.824;2024-01-16T04:28:29;8.50;3.75;3.25
55304;PMS7003;65692;51.378;19.824;2024-01-16T04:30:56;1.00;1.00;1.00
55304;PMS7003;65692;51.378;19.824;2024-01-16T04:33:23;9.25;7.00;6.00
55304;PMS7003;65692;51.378;19.824;2024-01-16T04:35:49;3.25;2.00;2.00
55304;PMS7003;65692;51.378;19.824;2024-01-16T04:38:16;9.25;6.00;4.00
55304;PMS7003;65692;51.378;19.824;2024-01-16T04:40:43;6.50;6.50;4.50
55304;PMS7003;65692;51.378;19.824;2024-01-16T04:43:10;6.00;6.00;4.00
55304;PMS7003;65692;51.378;19.824;2024-01-16T04:45:36;9.75;6.00;6.00
55304;PMS7003;65692;51.378;19.824;2024-01-16T04:48:03;7.75;6.00;4.50
55304;PMS7003;65692;51.378;19.824;2024-01-16T04:50:30;8.00;4.00;3.25
55304;PMS7003;65692;51.378;19.824;2024-01-16T04:53:00;5.50;4.50;4.00
55304;PMS7003;65692;51.378;19.824;2024-01-16T04:55:27;10.50;6.00;4.00
55304;PMS7003;65692;51.378;19.824;2024-01-16T04:57:54;6.25;4.00;3.50
55304;PMS7003;65692;51.378;19.824;2024-01-16T05:00:21;12.00;6.75;6.00
55304;PMS7003;65692;51.378;19.824;2024-01-16T05:02:47;10.00;4.50;4.00
55304;PMS7003;65692;51.378;19.824;2024-01-16T05:05:14;7.00;7.00;4.50
55304;PMS7003;65692;51.378;19.824;2024-01-16T05:07:41;9.75;6.75;6.00
55304;PMS7003;65692;51.378;19.824;2024-01-16T05:10:09;6.50;5.00;4.00
55304;PMS7003;65692;51.378;19.824;2024-01-16T05:12:36;7.25;4.00;4.00
55304;PMS7003;65692;51.378;19.824;2024-01-16T05:15:02;16.00;7.00;6.25
55304;PMS7003;65692;51.378;19.824;2024-01-16T05:17:29;5.00;4.00;3.25
55304;PMS7003;65692;51.378;19.824;2024-01-16T05:19:56;7.00;6.50;6.00
55304;PMS7003;65692;51.378;19.824;2024-01-16T05:22:23;10.75;7.00;4.50
55304;PMS7003;65692;51.378;19.824;2024-01-16T05:24:49;9.50;6.25;4.50
55304;PMS7003;65692;51.378;19.824;2024-01-16T05:27:16;9.00;8.00;6.50
55304;PMS7003;65692;51.378;19.824;2024-01-16T05:29:43;11.00;9.00;8.50
55304;PMS7003;65692;51.378;19.824;2024-01-16T05:32:10;6.25;6.25;5.50
55304;PMS7003;65692;51.378;19.824;2024-01-16T05:34:36;16.75;9.00;7.00
55304;PMS7003;65692;51.378;19.824;2024-01-16T05:37:03;9.00;9.00;7.00
55304;PMS7003;65692;51.378;19.824;2024-01-16T05:39:30;13.50;12.00;9.00
55304;PMS7003;65692;51.378;19.824;2024-01-16T05:41:57;20.50;12.00;8.00
55304;PMS7003;65692;51.378;19.824;2024-01-16T05:44:23;20.25;11.00;7.00
55304;PMS7003;65692;51.378;19.824;2024-01-16T05:46:51;18.00;15.50;12.00
55304;PMS7003;65692;51.378;19.824;2024-01-16T05:49:18;17.25;11.00;7.50
55304;PMS7003;65692;51.378;19.824;2024-01-16T05:51:44;18.00;15.00;10.00
55304;PMS7003;65692;51.378;19.824;2024-01-16T05:54:11;13.50;12.75;10.00
55304;PMS7003;65692;51.378;19.824;2024-01-16T05:56:38;25.00;15.25;13.00
55304;PMS7003;65692;51.378;19.824;2024-01-16T05:59:05;30.25;23.50;18.00
55304;PMS7003;65692;51.378;19.824;2024-01-16T06:01:31;14.50;13.00;10.00
55304;PMS7003;65692;51.378;19.824;2024-01-16T06:03:58;21.75;9.50;9.25
55304;PMS7003;65692;51.378;19.824;2024-01-16T06:06:25;18.50;11.00;9.00
55304;PMS7003;65692;51.378;19.824;2024-01-16T06:08:52;14.25;11.00;8.00
55304;PMS7003;65692;51.378;19.824;2024-01-16T06:11:22;18.50;9.50;6.00
55304;PMS7003;65692;51.378;19.824;2024-01-16T06:13:55;17.50;13.00;10.25
55304;PMS7003;65692;51.378;19.824;2024-01-16T06:16:22;21.75;14.50;11.50
55304;PMS7003;65692;51.378;19.824;2024-01-16T06:18:48;20.50;19.00;13.25
55304;PMS7003;65692;51.378;19.824;2024-01-16T06:21:15;17.75;15.00;11.00
55304;PMS7003;65692;51.378;19.824;2024-01-16T06:23:43;16.25;14.75;12.00
55304;PMS7003;65692;51.378;19.824;2024-01-16T06:26:09;13.00;13.00;9.00
55304;PMS7003;65692;51.378;19.824;2024-01-16T06:28:36;18.25;14.00;12.00
55304;PMS7003;65692;51.378;19.824;2024-01-16T06:31:03;18.50;10.00;7.00
55304;PMS7003;65692;51.378;19.824;2024-01-16T06:33:30;17.75;14.50;9.75
55304;PMS7003;65692;51.378;19.824;2024-01-16T06:35:57;15.50;11.50;9.00
55304;PMS7003;65692;51.378;19.824;2024-01-16T06:38:24;14.00;11.00;6.75
55304;PMS7003;65692;51.378;19.824;2024-01-16T06:40:50;18.75;12.75;9.00
55304;PMS7003;65692;51.378;19.824;2024-01-16T06:43:17;19.00;15.50;12.00
55304;PMS7003;65692;51.378;19.824;2024-01-16T06:45:44;28.25;18.50;12.75
55304;PMS7003;65692;51.378;19.824;2024-01-16T06:48:11;10.00;8.50;6.00
55304;PMS7003;65692;51.378;19.824;2024-01-16T06:50:38;20.25;12.00;9.00
55304;PMS7003;65692;51.378;19.824;2024-01-16T06:53:05;21.50;12.75;10.50
55304;PMS7003;65692;51.378;19.824;2024-01-16T06:55:31;21.00;18.00;12.25
55304;PMS7003;65692;51.378;19.824;2024-01-16T06:57:58;30.00;27.50;21.00
55304;PMS7003;65692;51.378;19.824;2024-01-16T07:00:25;46.00;31.00;25.00
55304;PMS7003;65692;51.378;19.824;2024-01-16T07:02:53;41.75;30.50;18.75
55304;PMS7003;65692;51.378;19.824;2024-01-16T07:05:21;36.25;30.25;21.50
55304;PMS7003;65692;51.378;19.824;2024-01-16T07:07:48;46.00;31.50;24.50
55304;PMS7003;65692;51.378;19.824;2024-01-16T07:10:14;44.25;34.75;24.25
55304;PMS7003;65692;51.378;19.824;2024-01-16T07:12:45;45.25;36.75;25.50
55304;PMS7003;65692;51.378;19.824;2024-01-16T07:15:11;44.25;37.25;27.25
55304;PMS7003;65692;51.378;19.824;2024-01-16T07:17:38;41.50;36.75;29.50
55304;PMS7003;65692;51.378;19.824;2024-01-16T07:20:05;38.50;31.00;21.75
55304;PMS7003;65692;51.378;19.824;2024-01-16T07:22:31;31.75;27.75;20.50
55304;PMS7003;65692;51.378;19.824;2024-01-16T07:24:58;22.50;19.50;15.25
55304;PMS7003;65692;51.378;19.824;2024-01-16T07:27:25;25.50;17.75;15.50
55304;PMS7003;65692;51.378;19.824;2024-01-16T07:29:52;20.00;11.50;9.25
55304;PMS7003;65692;51.378;19.824;2024-01-16T07:32:18;18.00;16.00;12.75
55304;PMS7003;65692;51.378;19.824;2024-01-16T07:34:45;18.50;11.50;9.25
55304;PMS7003;65692;51.378;19.824;2024-01-16T07:37:12;18.75;13.50;10.50
55304;PMS7003;65692;51.378;19.824;2024-01-16T07:39:38;28.75;18.00;14.00
55304;PMS7003;65692;51.378;19.824;2024-01-16T07:42:05;18.50;12.00;7.50
55304;PMS7003;65692;51.378;19.824;2024-01-16T07:44:31;22.25;14.00;11.00
55304;PMS7003;65692;51.378;19.824;2024-01-16T07:46:58;16.75;14.50;10.00
55304;PMS7003;65692;51.378;19.824;2024-01-16T07:49:25;21.25;13.00;9.50
55304;PMS7003;65692;51.378;19.824;2024-01-16T07:51:52;26.25;15.75;10.50
55304;PMS7003;65692;51.378;19.824;2024-01-16T07:54:19;21.50;12.75;9.25
55304;PMS7003;65692;51.378;19.824;2024-01-16T07:56:46;23.75;18.25;14.50
55304;PMS7003;65692;51.378;19.824;2024-01-16T07:59:13;15.50;14.50;11.50
55304;PMS7003;65692;51.378;19.824;2024-01-16T08:01:41;20.50;16.50;12.00
55304;PMS7003;65692;51.378;19.824;2024-01-16T08:04:08;26.00;14.75;12.50
55304;PMS7003;65692;51.378;19.824;2024-01-16T08:06:35;28.25;18.25;13.50
55304;PMS7003;65692;51.378;19.824;2024-01-16T08:09:02;17.75;15.00;12.00
55304;PMS7003;65692;51.378;19.824;2024-01-16T08:11:28;22.50;17.75;12.50
55304;PMS7003;65692;51.378;19.824;2024-01-16T08:13:55;23.75;21.25;16.00
55304;PMS7003;65692;51.378;19.824;2024-01-16T08:16:22;28.50;21.50;14.50
55304;PMS7003;65692;51.378;19.824;2024-01-16T08:18:49;26.75;19.50;15.00
55304;PMS7003;65692;51.378;19.824;2024-01-16T08:21:16;22.75;17.00;15.00
55304;PMS7003;65692;51.378;19.824;2024-01-16T08:23:42;21.25;17.00;14.00
55304;PMS7003;65692;51.378;19.824;2024-01-16T08:26:10;26.50;21.00;17.50
55304;PMS7003;65692;51.378;19.824;2024-01-16T08:28:36;23.25;19.75;15.00
55304;PMS7003;65692;51.378;19.824;2024-01-16T08:31:03;25.50;18.25;12.75
55304;PMS7003;65692;51.378;19.824;2024-01-16T08:33:30;25.50;23.50;16.50
55304;PMS7003;65692;51.378;19.824;2024-01-16T08:36:08;28.75;22.50;16.50
55304;PMS7003;65692;51.378;19.824;2024-01-16T08:38:35;31.00;20.50;11.50
55304;PMS7003;65692;51.378;19.824;2024-01-16T08:41:02;29.00;22.75;16.00
55304;PMS7003;65692;51.378;19.824;2024-01-16T08:43:33;17.50;16.00;14.00
55304;PMS7003;65692;51.378;19.824;2024-01-16T08:45:59;29.00;19.50;15.25
55304;PMS7003;65692;51.378;19.824;2024-01-16T08:48:26;24.00;19.00;15.00
55304;PMS7003;65692;51.378;19.824;2024-01-16T08:50:53;32.75;19.50;14.00
55304;PMS7003;65692;51.378;19.824;2024-01-16T08:53:23;23.75;15.25;12.25
55304;PMS7003;65692;51.378;19.824;2024-01-16T08:55:50;36.00;22.50;16.50
55304;PMS7003;65692;51.378;19.824;2024-01-16T08:58:16;30.25;20.50;12.50
55304;PMS7003;65692;51.378;19.824;2024-01-16T09:00:43;38.00;27.25;18.50
55304;PMS7003;65692;51.378;19.824;2024-01-16T09:03:11;31.75;24.25;17.00
55304;PMS7003;65692;51.378;19.824;2024-01-16T09:05:38;24.50;20.50;16.75
55304;PMS7003;65692;51.378;19.824;2024-01-16T09:08:06;27.00;22.00;18.00
55304;PMS7003;65692;51.378;19.824;2024-01-16T09:10:37;35.00;26.50;21.00
55304;PMS7003;65692;51.378;19.824;2024-01-16T09:13:03;30.25;20.75;12.75
55304;PMS7003;65692;51.378;19.824;2024-01-16T09:15:30;35.50;26.50;20.50
55304;PMS7003;65692;51.378;19.824;2024-01-16T09:17:57;29.00;24.50;15.00
55304;PMS7003;65692;51.378;19.824;2024-01-16T09:20:23;40.75;26.00;19.00
55304;PMS7003;65692;51.378;19.824;2024-01-16T09:22:50;33.75;27.00;18.75
55304;PMS7003;65692;51.378;19.824;2024-01-16T09:25:17;36.00;29.25;24.25
55304;PMS7003;65692;51.378;19.824;2024-01-16T09:27:44;45.00;30.75;20.50
55304;PMS7003;65692;51.378;19.824;2024-01-16T09:30:10;39.50;31.50;23.50
55304;PMS7003;65692;51.378;19.824;2024-01-16T09:32:39;34.00;28.00;18.00
55304;PMS7003;65692;51.378;19.824;2024-01-16T09:35:06;31.50;23.00;17.50
55304;PMS7003;65692;51.378;19.824;2024-01-16T09:37:35;41.00;29.50;23.00
55304;PMS7003;65692;51.378;19.824;2024-01-16T09:40:02;32.25;25.75;18.25
55304;PMS7003;65692;51.378;19.824;2024-01-16T09:42:31;30.00;25.25;18.25
55304;PMS7003;65692;51.378;19.824;2024-01-16T09:44:59;23.75;20.00;18.00
55304;PMS7003;65692;51.378;19.824;2024-01-16T09:47:26;41.00;26.25;17.75
55304;PMS7003;65692;51.378;19.824;2024-01-16T09:49:53;45.00;26.25;21.25
55304;PMS7003;65692;51.378;19.824;2024-01-16T09:52:21;26.75;22.00;16.00
55304;PMS7003;65692;51.378;19.824;2024-01-16T09:54:47;26.50;23.25;18.50
55304;PMS7003;65692;51.378;19.824;2024-01-16T09:57:15;30.25;21.00;15.00
55304;PMS7003;65692;51.378;19.824;2024-01-16T09:59:43;34.00;23.00;14.50
55304;PMS7003;65692;51.378;19.824;2024-01-16T10:02:10;12.50;11.00;7.50
55304;PMS7003;65692;51.378;19.824;2024-01-16T10:04:38;30.00;20.00;15.00
55304;PMS7003;65692;51.378;19.824;2024-01-16T10:07:06;37.25;28.50;19.00
55304;PMS7003;65692;51.378;19.824;2024-01-16T10:09:34;29.75;22.00;15.75
55304;PMS7003;65692;51.378;19.824;2024-01-16T10:12:01;30.75;25.00;19.00
55304;PMS7003;65692;51.378;19.824;2024-01-16T10:14:29;31.00;25.50;19.75
55304;PMS7003;65692;51.378;19.824;2024-01-16T10:17:00;26.75;23.25;16.75
55304;PMS7003;65692;51.378;19.824;2024-01-16T10:19:32;30.00;21.50;15.50
55304;PMS7003;65692;51.378;19.824;2024-01-16T10:22:13;14.00;12.33;10.00
55304;PMS7003;65692;51.378;19.824;2024-01-16T10:25:03;23.00;19.00;13.00
55304;PMS7003;65692;51.378;19.824;2024-01-16T10:27:30;25.00;18.67;15.33
55304;PMS7003;65692;51.378;19.824;2024-01-16T10:29:58;24.67;22.67;15.33
55304;PMS7003;65692;51.378;19.824;2024-01-16T10:32:28;19.00;15.00;10.00
55304;PMS7003;65692;51.378;19.824;2024-01-16T10:35:02;25.67;19.67;15.67
55304;PMS7003;65692;51.378;19.824;2024-01-16T10:37:31;26.75;23.00;18.00
55304;PMS7003;65692;51.378;19.824;2024-01-16T10:40:07;17.00;15.75;11.25
55304;PMS7003;65692;51.378;19.824;2024-01-16T10:42:33;32.25;24.00;15.75
55304;PMS7003;65692;51.378;19.824;2024-01-16T10:45:00;35.50;27.75;20.25
55304;PMS7003;65692;51.378;19.824;2024-01-16T10:47:27;28.00;21.67;17.67
55304;PMS7003;65692;51.378;19.824;2024-01-16T10:49:55;27.25;23.25;17.00
55304;PMS7003;65692;51.378;19.824;2024-01-16T10:52:21;25.67;21.00;15.33
55304;PMS7003;65692;51.378;19.824;2024-01-16T10:54:49;18.67;16.33;11.33
55304;PMS7003;65692;51.378;19.824;2024-01-16T10:57:17;25.00;21.33;16.33
55304;PMS7003;65692;51.378;19.824;2024-01-16T11:00:03;36.00;25.67;16.00
55304;PMS7003;65692;51.378;19.824;2024-01-16T11:02:35;27.25;25.25;19.00
55304;PMS7003;65692;51.378;19.824;2024-01-16T11:05:04;34.50;28.25;20.75
55304;PMS7003;65692;51.378;19.824;2024-01-16T11:07:34;38.25;29.00;22.00
55304;PMS7003;65692;51.378;19.824;2024-01-16T11:10:02;39.75;30.50;19.75
55304;PMS7003;65692;51.378;19.824;2024-01-16T11:12:30;30.25;22.00;18.00
55304;PMS7003;65692;51.378;19.824;2024-01-16T11:14:57;32.50;25.00;18.00
55304;PMS7003;65692;51.378;19.824;2024-01-16T11:17:24;26.00;19.33;13.00
55304;PMS7003;65692;51.378;19.824;2024-01-16T11:19:51;29.67;22.33;15.67
55304;PMS7003;65692;51.378;19.824;2024-01-16T11:22:38;23.33;19.00;14.33
55304;PMS7003;65692;51.378;19.824;2024-01-16T11:27:38;18.67;16.00;11.00
55304;PMS7003;65692;51.378;19.824;2024-01-16T11:30:06;28.00;21.25;15.50
55304;PMS7003;65692;51.378;19.824;2024-01-16T11:32:42;47.75;37.25;25.50
55304;PMS7003;65692;51.378;19.824;2024-01-16T11:35:10;35.75;28.75;23.00
55304;PMS7003;65692;51.378;19.824;2024-01-16T11:37:39;44.00;30.00;21.75
55304;PMS7003;65692;51.378;19.824;2024-01-16T11:42:47;23.75;17.50;16.00
55304;PMS7003;65692;51.378;19.824;2024-01-16T11:48:09;50.00;30.75;23.25
55304;PMS7003;65692;51.378;19.824;2024-01-16T11:50:37;24.33;21.00;15.67
55304;PMS7003;65692;51.378;19.824;2024-01-16T11:53:04;29.00;23.25;17.00
55304;PMS7003;65692;51.378;19.824;2024-01-16T11:55:31;31.00;23.00;17.67
55304;PMS7003;65692;51.378;19.824;2024-01-16T12:00:44;45.00;43.00;29.75
55304;PMS7003;65692;51.378;19.824;2024-01-16T12:03:13;36.25;27.75;19.50
55304;PMS7003;65692;51.378;19.824;2024-01-16T12:05:57;43.25;30.25;21.25
55304;PMS7003;65692;51.378;19.824;2024-01-16T12:08:24;51.25;45.50;32.00
55304;PMS7003;65692;51.378;19.824;2024-01-16T12:10:51;58.25;39.25;25.50
55304;PMS7003;65692;51.378;19.824;2024-01-16T12:13:18;36.75;31.50;23.00
55304;PMS7003;65692;51.378;19.824;2024-01-16T12:15:45;57.00;43.75;29.25
55304;PMS7003;65692;51.378;19.824;2024-01-16T12:18:17;70.75;54.25;36.25
55304;PMS7003;65692;51.378;19.824;2024-01-16T12:21:07;84.50;61.00;41.25
55304;PMS7003;65692;51.378;19.824;2024-01-16T12:23:34;48.50;44.00;29.25
55304;PMS7003;65692;51.378;19.824;2024-01-16T12:26:01;68.50;54.75;38.50
55304;PMS7003;65692;51.378;19.824;2024-01-16T12:28:30;58.25;40.00;27.00
55304;PMS7003;65692;51.378;19.824;2024-01-16T12:30:59;52.00;45.25;26.50
55304;PMS7003;65692;51.378;19.824;2024-01-16T12:33:27;46.25;35.50;25.00
55304;PMS7003;65692;51.378;19.824;2024-01-16T12:36:01;52.75;44.50;31.25
55304;PMS7003;65692;51.378;19.824;2024-01-16T12:38:32;41.50;35.50;23.25
55304;PMS7003;65692;51.378;19.824;2024-01-16T12:40:59;41.00;35.00;24.00
55304;PMS7003;65692;51.378;19.824;2024-01-16T12:43:29;32.25;28.75;21.00
55304;PMS7003;65692;51.378;19.824;2024-01-16T12:45:56;40.50;31.50;20.25
55304;PMS7003;65692;51.378;19.824;2024-01-16T12:48:25;34.75;26.75;20.00
55304;PMS7003;65692;51.378;19.824;2024-01-16T12:51:02;41.50;28.00;20.50
55304;PMS7003;65692;51.378;19.824;2024-01-16T12:53:31;39.25;29.25;20.75
55304;PMS7003;65692;51.378;19.824;2024-01-16T12:56:03;41.50;41.50;29.25
55304;PMS7003;65692;51.378;19.824;2024-01-16T12:58:33;41.00;33.75;22.75
55304;PMS7003;65692;51.378;19.824;2024-01-16T13:04:03;24.67;22.00;18.33
55304;PMS7003;65692;51.378;19.824;2024-01-16T13:06:30;26.67;23.67;18.33
55304;PMS7003;65692;51.378;19.824;2024-01-16T13:09:07;35.75;26.00;25.50
55304;PMS7003;65692;51.378;19.824;2024-01-16T13:11:51;31.75;27.00;20.00
55304;PMS7003;65692;51.378;19.824;2024-01-16T13:14:19;40.25;35.25;25.25
55304;PMS7003;65692;51.378;19.824;2024-01-16T13:16:49;53.50;37.50;21.50
55304;PMS7003;65692;51.378;19.824;2024-01-16T13:19:19;39.00;30.00;19.67
55304;PMS7003;65692;51.378;19.824;2024-01-16T13:21:47;41.00;32.75;24.75
55304;PMS7003;65692;51.378;19.824;2024-01-16T13:24:13;49.25;40.00;30.25
55304;PMS7003;65692;51.378;19.824;2024-01-16T13:26:40;48.50;37.00;24.50
55304;PMS7003;65692;51.378;19.824;2024-01-16T13:29:08;31.75;26.00;18.00
55304;PMS7003;65692;51.378;19.824;2024-01-16T13:31:35;43.25;33.50;23.00
55304;PMS7003;65692;51.378;19.824;2024-01-16T13:34:02;43.00;34.00;24.25
55304;PMS7003;65692;51.378;19.824;2024-01-16T13:36:29;27.25;22.50;13.00
55304;PMS7003;65692;51.378;19.824;2024-01-16T13:39:15;45.00;38.75;27.50
55304;PMS7003;65692;51.378;19.824;2024-01-16T13:41:43;48.75;39.50;28.00
55304;PMS7003;65692;51.378;19.824;2024-01-16T13:44:09;45.00;36.75;25.00
55304;PMS7003;65692;51.378;19.824;2024-01-16T13:46:36;34.75;30.50;19.00
55304;PMS7003;65692;51.378;19.824;2024-01-16T13:49:22;39.00;33.00;21.00
55304;PMS7003;65692;51.378;19.824;2024-01-16T13:51:50;58.75;48.00;31.25
55304;PMS7003;65692;51.378;19.824;2024-01-16T13:54:16;60.00;45.00;32.50
55304;PMS7003;65692;51.378;19.824;2024-01-16T13:56:43;51.25;41.00;28.50
55304;PMS7003;65692;51.378;19.824;2024-01-16T13:59:30;73.00;51.50;32.75
55304;PMS7003;65692;51.378;19.824;2024-01-16T14:01:57;50.50;36.75;27.75
55304;PMS7003;65692;51.378;19.824;2024-01-16T14:04:24;31.25;30.75;24.25
55304;PMS7003;65692;51.378;19.824;2024-01-16T14:06:50;29.75;21.75;14.50